| time (UTC) | temp F | wind direction | speed knots | gust knots | rain 1hr in | rain 24hr in | rain mn in | humidity % | barometer mb |
| 20260906091028 | 74 | 2 | 1.7 | 3.5 | 0.00 | 0.00 | 0.00 | 91 | 1015.5 |
| 20260906090022 | 74 | 336 | 0.9 | 1.7 | 0.00 | 0.00 | 0.00 | 91 | 1015.4 |
| 20260906085028 | 74 | 329 | 0.9 | 2.6 | 0.00 | 0.00 | 0.00 | 91 | 1015.3 |
| 20260906084023 | 74 | 7 | 1.7 | 4.3 | 0.00 | 0.00 | 0.00 | 92 | 1015.3 |
| 20260906083029 | 73 | 5 | 0.9 | 3.5 | 0.00 | 0.00 | 0.00 | 92 | 1015.2 |
| 20260906082044 | 73 | 354 | 0.9 | 3.5 | 0.00 | 0.00 | 0.00 | 92 | 1015.1 |
| 20260906081019 | 74 | 22 | 1.7 | 3.5 | 0.00 | 0.00 | 0.00 | 92 | 1015.2 |
| 20260906080024 | 74 | 340 | 0.9 | 2.6 | 0.00 | 0.00 | 0.00 | 92 | 1015.3 |
| 20260906075019 | 74 | 3 | 0.9 | 3.5 | 0.00 | 0.00 | 0.00 | 92 | 1015.3 |
| 20260906074024 | 74 | 7 | 1.7 | 3.5 | 0.00 | 0.00 | 0.00 | 92 | 1015.1 |
| 20260906073020 | 74 | 18 | 0.9 | 2.6 | 0.00 | 0.00 | 0.00 | 92 | 1015.3 |
| 20260906072045 | 74 | 22 | 0.9 | 3.5 | 0.00 | 0.00 | 0.00 | 92 | 1015.3 |
| 20260906071020 | 74 | 347 | 1.7 | 3.5 | 0.00 | 0.00 | 0.00 | 92 | 1015.4 |
| 20260906070025 | 74 | 353 | 0.9 | 1.7 | 0.00 | 0.00 | 0.00 | 92 | 1015.3 |
| 20260906065020 | 74 | 336 | 0.9 | 3.5 | 0.00 | 0.00 | 0.00 | 92 | 1015.3 |
| 20260906064026 | 74 | 353 | 0.9 | 2.6 | 0.00 | 0.00 | 0.00 | 91 | 1015.4 |
| 20260906063021 | 74 | 353 | 0.0 | 1.7 | 0.00 | 0.00 | 0.00 | 90 | 1015.4 |
| 20260906062027 | 74 | 2 | 0.0 | 2.6 | 0.00 | 0.00 | 0.00 | 90 | 1015.5 |
| 20260906061041 | 74 | 43 | 0.9 | 3.5 | 0.00 | 0.00 | 0.00 | 90 | 1015.6 |
| 20260906060027 | 75 | 349 | 0.0 | 2.6 | 0.00 | 0.00 | 0.00 | 89 | 1015.4 |
| 20260906055022 | 75 | 0.0 | 0.0 | 0.00 | 0.00 | 0.00 | 89 | 1015.4 | |
| 20260906054027 | 75 | 329 | 0.0 | 2.6 | 0.00 | 0.00 | 0.00 | 89 | 1015.4 |
| 20260906053022 | 75 | 2 | 0.9 | 2.6 | 0.00 | 0.00 | 0.00 | 88 | 1015.5 |
| 20260906052028 | 75 | 333 | 0.0 | 1.7 | 0.00 | 0.00 | 0.00 | 88 | 1015.5 |
| 20260906051023 | 76 | 32 | 0.0 | 2.6 | 0.00 | 0.00 | 0.00 | 87 | 1015.3 |
| 20260906050029 | 76 | 328 | 0.9 | 3.5 | 0.00 | 0.00 | 0.00 | 87 | 1015.2 |
| 20260906045026 | 76 | 359 | 0.0 | 3.5 | 0.00 | 0.00 | 0.00 | 87 | 1015.1 |
| 20260906044039 | 76 | 340 | 0.0 | 1.7 | 0.00 | 0.00 | 0.00 | 87 | 1015.0 |
| 20260906043027 | 76 | 0.0 | 0.0 | 0.00 | 0.00 | 0.00 | 86 | 1014.8 | |
| 20260906042100 | 77 | 0.0 | 0.0 | 0.00 | 0.00 | 0.00 | 85 | 1014.8 | |
| 20260906041047 | 77 | 0.0 | 0.9 | 0.00 | 0.00 | 0.00 | 84 | 1014.8 | |
| 20260906040019 | 78 | 354 | 0.9 | 2.6 | 0.00 | 0.00 | 0.00 | 82 | 1014.8 |
| 20260906035026 | 79 | 360 | 0.9 | 2.6 | 0.00 | 0.00 | 0.00 | 82 | 1014.7 |
| 20260906034021 | 79 | 18 | 0.9 | 3.5 | 0.00 | 0.00 | 0.00 | 82 | 1014.7 |
| 20260906033026 | 79 | 10 | 0.9 | 3.5 | 0.00 | 0.00 | 0.00 | 81 | 1014.7 |
| 20260906032021 | 79 | 7 | 1.7 | 3.5 | 0.00 | 0.00 | 0.00 | 81 | 1014.8 |
| 20260906031027 | 80 | 310 | 0.9 | 1.7 | 0.00 | 0.00 | 0.00 | 80 | 1014.8 |
| 20260906030021 | 80 | 299 | 0.0 | 1.7 | 0.00 | 0.00 | 0.00 | 80 | 1014.6 |
| 20260906025026 | 80 | 343 | 0.9 | 1.7 | 0.00 | 0.00 | 0.00 | 79 | 1014.6 |
| 20260906024021 | 80 | 352 | 0.9 | 2.6 | 0.00 | 0.00 | 0.00 | 79 | 1014.5 |
| 20260906023027 | 81 | 351 | 1.7 | 2.6 | 0.00 | 0.00 | 0.00 | 78 | 1014.4 |
| 20260906022022 | 81 | 325 | 0.9 | 2.6 | 0.00 | 0.00 | 0.00 | 77 | 1014.2 |
| 20260906021027 | 82 | 336 | 0.9 | 3.5 | 0.00 | 0.00 | 0.00 | 77 | 1014.0 |
| 20260906020023 | 82 | 332 | 1.7 | 3.5 | 0.00 | 0.00 | 0.00 | 76 | 1014.2 |
| 20260906015029 | 82 | 346 | 1.7 | 2.6 | 0.00 | 0.00 | 0.00 | 76 | 1014.0 |
| 20260906014023 | 82 | 321 | 0.9 | 2.6 | 0.00 | 0.00 | 0.00 | 78 | 1013.7 |
| 20260906013019 | 82 | 329 | 0.9 | 2.6 | 0.00 | 0.00 | 0.00 | 81 | 1013.5 |
| 20260906012024 | 82 | 0.0 | 0.0 | 0.00 | 0.00 | 0.00 | 83 | 1013.3 | |
| 20260906011020 | 81 | 0.0 | 0.0 | 0.00 | 0.00 | 0.00 | 83 | 1013.3 | |
| 20260906010025 | 82 | 0.0 | 0.0 | 0.00 | 0.00 | 0.00 | 82 | 1013.1 | |
| 20260906005020 | 83 | 0.0 | 0.0 | 0.00 | 0.00 | 0.00 | 80 | 1013.1 | |
| 20260906004025 | 84 | 0.0 | 0.0 | 0.00 | 0.00 | 0.00 | 78 | 1013.2 | |
| 20260906003021 | 84 | 0.0 | 0.0 | 0.00 | 0.00 | 0.00 | 77 | 1013.2 | |
| 20260906002106 | 84 | 0.0 | 0.0 | 0.00 | 0.00 | 0.00 | 76 | 1013.3 | |
| 20260906001021 | 85 | 0.0 | 0.0 | 0.00 | 0.00 | 0.00 | 73 | 1013.4 | |
| 20260906000027 | 86 | 0.0 | 0.0 | 0.00 | 0.00 | 0.00 | 71 | 1013.5 | |
| 20260905235022 | 87 | 0.0 | 0.0 | 0.00 | 0.00 | 0.00 | 69 | 1013.5 | |
| 20260905234027 | 88 | 0.0 | 0.0 | 0.00 | 0.00 | 0.00 | 67 | 1013.5 | |
| 20260905233023 | 88 | 324 | 0.0 | 1.7 | 0.00 | 0.00 | 0.00 | 66 | 1013.4 |
| 20260905232028 | 89 | 334 | 0.0 | 0.9 | 0.00 | 0.00 | 0.00 | 65 | 1013.4 |
| 20260905231023 | 89 | 331 | 0.9 | 1.7 | 0.00 | 0.00 | 0.00 | 64 | 1013.2 |
| 20260905230029 | 90 | 334 | 0.9 | 1.7 | 0.00 | 0.00 | 0.00 | 62 | 1013.2 |
| 20260905225027 | 90 | 323 | 1.7 | 2.6 | 0.00 | 0.00 | 0.00 | 62 | 1013.2 |
| 20260905224019 | 90 | 339 | 1.7 | 3.5 | 0.00 | 0.00 | 0.00 | 61 | 1013.2 |
| 20260905223026 | 90 | 327 | 0.9 | 1.7 | 0.00 | 0.00 | 0.00 | 62 | 1013.0 |
| 20260905222020 | 90 | 340 | 1.7 | 3.5 | 0.00 | 0.00 | 0.00 | 61 | 1013.0 |
| 20260905221055 | 91 | 346 | 0.9 | 3.5 | 0.00 | 0.00 | 0.00 | 60 | 1012.9 |
| 20260905220020 | 91 | 350 | 1.7 | 3.5 | 0.00 | 0.00 | 0.00 | 59 | 1012.8 |
| 20260905215026 | 92 | 331 | 0.9 | 1.7 | 0.00 | 0.00 | 0.00 | 58 | 1013.1 |
| 20260905214041 | 92 | 337 | 0.9 | 2.6 | 0.00 | 0.00 | 0.00 | 59 | 1013.2 |
| 20260905213027 | 92 | 332 | 1.7 | 3.5 | 0.00 | 0.00 | 0.00 | 58 | 1012.9 |
| 20260905212022 | 94 | 328 | 0.0 | 1.7 | 0.00 | 0.00 | 0.00 | 54 | 1013.0 |
| 20260905211047 | 94 | 325 | 0.9 | 1.7 | 0.00 | 0.00 | 0.00 | 56 | 1013.1 |
| 20260905205028 | 94 | 319 | 1.7 | 2.6 | 0.00 | 0.00 | 0.00 | 54 | 1013.3 |
| 20260905204023 | 94 | 334 | 1.7 | 3.5 | 0.00 | 0.00 | 0.00 | 53 | 1013.4 |
| 20260905203049 | 95 | 333 | 1.7 | 3.5 | 0.00 | 0.00 | 0.00 | 53 | 1013.7 |
| 20260905202124 | 95 | 337 | 1.7 | 4.3 | 0.00 | 0.00 | 0.00 | 52 | 1013.7 |
| 20260905201019 | 95 | 329 | 1.7 | 4.3 | 0.00 | 0.00 | 0.00 | 52 | 1013.8 |
| 20260905200025 | 95 | 314 | 1.7 | 4.3 | 0.00 | 0.00 | 0.00 | 52 | 1013.8 |
| 20260905195042 | 95 | 325 | 1.7 | 2.6 | 0.00 | 0.00 | 0.00 | 52 | 1013.7 |
| 20260905194026 | 95 | 354 | 1.7 | 5.2 | 0.00 | 0.00 | 0.00 | 53 | 1013.9 |
| 20260905193051 | 97 | 330 | 1.7 | 2.6 | 0.00 | 0.00 | 0.00 | 50 | 1013.9 |
| 20260905192047 | 98 | 316 | 0.9 | 2.6 | 0.00 | 0.00 | 0.00 | 49 | 1014.0 |
| 20260905191021 | 95 | 346 | 1.7 | 5.2 | 0.00 | 0.00 | 0.00 | 54 | 1014.1 |
| 20260905190027 | 94 | 334 | 1.7 | 3.5 | 0.00 | 0.00 | 0.00 | 55 | 1014.4 |
| 20260905185033 | 96 | 228 | 1.7 | 3.5 | 0.00 | 0.00 | 0.00 | 50 | 1014.5 |
| 20260905184028 | 96 | 344 | 2.6 | 2.6 | 0.00 | 0.00 | 0.00 | 49 | 1014.7 |
| 20260905183023 | 95 | 269 | 0.9 | 2.6 | 0.00 | 0.00 | 0.00 | 51 | 1014.9 |
| 20260905182028 | 94 | 308 | 1.7 | 3.5 | 0.00 | 0.00 | 0.00 | 53 | 1014.9 |
| 20260905181026 | 95 | 308 | 0.9 | 1.7 | 0.00 | 0.00 | 0.00 | 51 | 1015.0 |
| 20260905180029 | 93 | 286 | 2.6 | 4.3 | 0.00 | 0.00 | 0.00 | 51 | 1015.1 |
| 20260905175238 | 93 | 1.7 | 2.6 | 0.00 | 0.00 | 0.00 | 54 | 1015.2 | |
| 20260905174020 | 93 | 278 | 1.7 | 3.5 | 0.00 | 0.00 | 0.00 | 51 | 1015.3 |
| 20260905173847 | 92 | 275 | 0.9 | 2.6 | 0.00 | 0.00 | 0.00 | 55 | 1015.3 |
| 20260905172021 | 92 | 228 | 1.7 | 2.6 | 0.00 | 0.00 | 0.00 | 56 | 1015.4 |
| 20260905171027 | 91 | 276 | 0.9 | 3.5 | 0.00 | 0.00 | 0.00 | 55 | 1015.5 |
| 20260905170021 | 92 | 318 | 0.9 | 1.7 | 0.00 | 0.00 | 0.00 | 55 | 1015.8 |
| 20260905165027 | 91 | 250 | 1.7 | 3.5 | 0.00 | 0.00 | 0.00 | 54 | 1016.0 |
| 20260905164022 | 88 | 290 | 1.7 | 3.5 | 0.00 | 0.00 | 0.00 | 58 | 1016.1 |
| 20260905163028 | 88 | 344 | 1.7 | 3.5 | 0.00 | 0.00 | 0.00 | 59 | 1016.1 |
| 20260905162023 | 88 | 270 | 0.9 | 3.5 | 0.00 | 0.00 | 0.00 | 58 | 1015.9 |
| 20260905161028 | 88 | 254 | 1.7 | 3.5 | 0.00 | 0.00 | 0.00 | 58 | 1016.0 |
| 20260905160023 | 88 | 293 | 0.9 | 2.6 | 0.00 | 0.00 | 0.00 | 56 | 1016.1 |
| 20260905155039 | 86 | 260 | 1.7 | 5.2 | 0.00 | 0.00 | 0.00 | 58 | 1016.3 |
| 20260905154024 | 86 | 333 | 1.7 | 3.5 | 0.00 | 0.00 | 0.00 | 58 | 1016.5 |
| 20260905153019 | 85 | 256 | 2.6 | 4.3 | 0.00 | 0.00 | 0.00 | 59 | 1016.4 |
| 20260905152025 | 85 | 261 | 2.6 | 5.2 | 0.00 | 0.00 | 0.00 | 58 | 1016.3 |
| 20260905151020 | 84 | 260 | 2.6 | 4.3 | 0.00 | 0.00 | 0.00 | 60 | 1016.3 |
| 20260905150026 | 84 | 354 | 2.6 | 6.1 | 0.00 | 0.00 | 0.00 | 61 | 1016.2 |
| 20260905145021 | 83 | 211 | 1.7 | 5.2 | 0.00 | 0.00 | 0.00 | 64 | 1016.3 |
| 20260905144027 | 83 | 296 | 2.6 | 3.5 | 0.00 | 0.00 | 0.00 | 64 | 1016.6 |
| 20260905143021 | 82 | 310 | 3.5 | 6.1 | 0.00 | 0.00 | 0.00 | 64 | 1016.6 |
| 20260905142027 | 82 | 324 | 3.5 | 7.8 | 0.00 | 0.00 | 0.00 | 65 | 1016.7 |
| 20260905141022 | 81 | 4 | 3.5 | 7.0 | 0.00 | 0.00 | 0.00 | 67 | 1016.5 |
| 20260905140028 | 81 | 297 | 2.6 | 6.1 | 0.00 | 0.00 | 0.00 | 68 | 1016.6 |
| 20260905135023 | 79 | 263 | 3.5 | 6.1 | 0.00 | 0.00 | 0.00 | 71 | 1016.7 |
| 20260905134049 | 79 | 269 | 2.6 | 6.1 | 0.00 | 0.00 | 0.00 | 73 | 1016.8 |
| 20260905133026 | 79 | 316 | 2.6 | 6.1 | 0.00 | 0.00 | 0.00 | 74 | 1016.7 |
| 20260905132019 | 79 | 267 | 3.5 | 7.0 | 0.00 | 0.00 | 0.00 | 77 | 1016.8 |
| 20260905131026 | 78 | 316 | 1.7 | 5.2 | 0.00 | 0.00 | 0.00 | 81 | 1016.8 |
| 20260905130019 | 78 | 330 | 2.6 | 5.2 | 0.00 | 0.00 | 0.00 | 81 | 1016.8 |
| 20260905125027 | 78 | 331 | 1.7 | 3.5 | 0.00 | 0.00 | 0.00 | 81 | 1016.8 |
| 20260905124020 | 78 | 354 | 2.6 | 5.2 | 0.00 | 0.00 | 0.00 | 82 | 1016.4 |
| 20260905123026 | 76 | 12 | 2.6 | 5.2 | 0.00 | 0.00 | 0.00 | 89 | 1016.5 |
| 20260905122021 | 75 | 0.0 | 0.0 | 0.00 | 0.00 | 0.00 | 93 | 1015.7 | |
| 20260905121026 | 75 | 0.0 | 0.0 | 0.00 | 0.00 | 0.00 | 93 | 1015.7 | |
| 20260905120041 | 74 | 0.0 | 0.0 | 0.00 | 0.00 | 0.00 | 93 | 1015.5 | |
| 20260905115027 | 74 | 0.0 | 0.0 | 0.00 | 0.00 | 0.00 | 93 | 1015.4 | |
| 20260905114022 | 74 | 0.0 | 0.0 | 0.00 | 0.00 | 0.00 | 92 | 1015.3 | |
| 20260905113027 | 74 | 0.0 | 0.0 | 0.00 | 0.00 | 0.00 | 92 | 1015.3 | |
| 20260905112022 | 74 | 0.0 | 0.0 | 0.00 | 0.00 | 0.00 | 92 | 1015.2 | |
| 20260905111027 | 74 | 0.0 | 0.0 | 0.00 | 0.00 | 0.00 | 93 | 1015.0 | |
| 20260905110022 | 74 | 0.0 | 0.0 | 0.00 | 0.00 | 0.00 | 92 | 1015.0 | |
| 20260905105028 | 74 | 0.0 | 0.0 | 0.00 | 0.00 | 0.00 | 92 | 1015.0 | |
| 20260905104023 | 74 | 0.0 | 0.0 | 0.00 | 0.00 | 0.00 | 92 | 1015.1 | |
| 20260905103028 | 75 | 0.0 | 0.0 | 0.00 | 0.00 | 0.00 | 92 | 1015.2 | |
| 20260905102023 | 75 | 0.0 | 0.0 | 0.00 | 0.00 | 0.00 | 91 | 1015.3 | |
| 20260905101019 | 75 | 0.0 | 0.0 | 0.00 | 0.00 | 0.00 | 91 | 1015.2 | |
| 20260905100024 | 75 | 0.0 | 0.0 | 0.00 | 0.00 | 0.00 | 91 | 1015.1 | |
| 20260905095019 | 75 | 0.0 | 0.0 | 0.00 | 0.00 | 0.00 | 91 | 1015.1 | |
| 20260905094023 | 75 | 0.0 | 0.0 | 0.00 | 0.00 | 0.00 | 91 | 1015.0 | |
| 20260905093039 | 75 | 0.0 | 0.0 | 0.00 | 0.00 | 0.00 | 92 | 1015.0 | |
| 20260905092025 | 75 | 0.0 | 0.0 | 0.00 | 0.00 | 0.00 | 92 | 1014.9 |